createdAt,value
2019-02-15T00:00:55.290Z,5.39
2019-02-15T00:01:55.274Z,5.52
2019-02-15T00:02:55.265Z,5.39
2019-02-15T00:03:55.258Z,5.40
2019-02-15T00:04:55.247Z,5.44
2019-02-15T00:05:55.230Z,5.37
2019-02-15T00:06:55.221Z,5.40
2019-02-15T00:07:55.203Z,5.39
2019-02-15T00:08:55.193Z,5.29
2019-02-15T00:09:55.193Z,5.29
2019-02-15T00:10:55.172Z,5.29
2019-02-15T00:11:55.166Z,5.30
2019-02-15T00:12:55.155Z,5.30
2019-02-15T00:13:55.142Z,5.25
2019-02-15T00:14:55.130Z,5.24
2019-02-15T00:15:55.121Z,5.18
2019-02-15T00:16:55.106Z,5.18
2019-02-15T00:17:55.101Z,5.22
2019-02-15T00:18:55.089Z,5.16
2019-02-15T00:19:55.074Z,5.14
2019-02-15T00:20:55.068Z,5.15
2019-02-15T00:21:55.055Z,5.04
2019-02-15T00:22:55.052Z,5.03
2019-02-15T00:23:55.028Z,5.09
2019-02-15T00:24:55.023Z,4.93
2019-02-15T00:25:55.007Z,4.94
2019-02-15T00:26:54.996Z,4.94
2019-02-15T00:27:54.986Z,4.86
2019-02-15T00:28:54.973Z,4.89
2019-02-15T00:29:54.962Z,4.79
2019-02-15T00:30:54.953Z,4.86
2019-02-15T00:31:54.942Z,4.85
2019-02-15T00:32:54.928Z,4.83
2019-02-15T00:33:54.915Z,4.86
2019-02-15T00:34:54.909Z,4.79
2019-02-15T00:35:54.897Z,4.85
2019-02-15T00:36:54.888Z,4.75
2019-02-15T00:37:54.877Z,4.71
2019-02-15T00:38:54.862Z,4.67
2019-02-15T00:39:54.850Z,4.74
2019-02-15T00:40:54.832Z,4.64
2019-02-15T00:41:54.835Z,4.66
2019-02-15T00:42:54.821Z,4.64
2019-02-15T00:43:54.805Z,4.69
2019-02-15T00:44:54.798Z,4.63
2019-02-15T00:45:54.773Z,4.59
2019-02-15T00:46:54.768Z,4.57
2019-02-15T00:47:54.757Z,4.60
2019-02-15T00:48:54.744Z,4.64
2019-02-15T00:49:54.738Z,4.53
2019-02-15T00:50:54.725Z,4.59
2019-02-15T00:51:54.709Z,4.54
2019-02-15T00:52:54.701Z,4.54
2019-02-15T00:53:54.694Z,4.67
2019-02-15T00:54:54.679Z,4.75
2019-02-15T00:55:54.668Z,4.71
2019-02-15T00:56:54.656Z,4.71
2019-02-15T00:57:54.641Z,4.69
2019-02-15T00:58:54.628Z,4.67
2019-02-15T00:59:54.619Z,4.60
2019-02-15T01:00:54.607Z,4.64
2019-02-15T01:01:54.599Z,4.54
2019-02-15T01:02:54.590Z,4.53
2019-02-15T01:03:54.578Z,4.56
2019-02-15T01:04:54.581Z,4.41
2019-02-15T01:05:54.549Z,4.36
2019-02-15T01:06:54.535Z,4.38
2019-02-15T01:07:54.531Z,4.24
2019-02-15T01:08:54.521Z,4.26
2019-02-15T01:09:54.502Z,4.27
2019-02-15T01:10:54.493Z,4.26
2019-02-15T01:11:54.484Z,4.23
2019-02-15T01:12:54.469Z,4.23
2019-02-15T01:13:54.465Z,4.24
2019-02-15T01:14:54.449Z,4.23
2019-02-15T01:15:54.436Z,4.13
2019-02-15T01:16:54.424Z,4.18
2019-02-15T01:17:54.410Z,4.13
2019-02-15T01:18:54.398Z,4.05
2019-02-15T01:19:54.390Z,4.08
2019-02-15T01:20:54.374Z,4.10
2019-02-15T01:21:54.371Z,4.16
2019-02-15T01:22:54.354Z,4.09
2019-02-15T01:23:54.337Z,4.13
2019-02-15T01:24:54.322Z,4.16
2019-02-15T01:25:54.320Z,4.10
2019-02-15T01:26:54.308Z,4.17
2019-02-15T01:27:54.296Z,4.06
2019-02-15T01:28:54.294Z,4.09
2019-02-15T01:29:54.273Z,4.00
2019-02-15T01:30:54.254Z,3.98
2019-02-15T01:31:54.245Z,3.98
2019-02-15T01:32:54.234Z,4.03
2019-02-15T01:33:54.226Z,4.00
2019-02-15T01:34:54.214Z,3.94
2019-02-15T01:35:54.203Z,3.98
2019-02-15T01:36:54.191Z,3.98
2019-02-15T01:37:54.181Z,3.91
2019-02-15T01:38:54.161Z,3.94
2019-02-15T01:39:54.158Z,3.98
2019-02-15T01:40:54.139Z,3.90
2019-02-15T01:41:54.130Z,3.80
2019-02-15T01:42:54.121Z,3.85
2019-02-15T01:43:54.105Z,3.76
2019-02-15T01:44:54.149Z,3.73
2019-02-15T01:45:54.088Z,3.81
2019-02-15T01:46:54.078Z,3.66
2019-02-15T01:47:54.063Z,3.80
2019-02-15T01:48:54.051Z,3.74
2019-02-15T01:49:54.032Z,3.72
2019-02-15T01:50:54.022Z,3.70
2019-02-15T01:51:54.010Z,3.72
2019-02-15T01:52:53.994Z,3.62
2019-02-15T01:53:53.992Z,3.72
2019-02-15T01:54:53.979Z,3.64
2019-02-15T01:55:53.968Z,3.55
2019-02-15T01:56:53.950Z,3.55
2019-02-15T01:57:53.942Z,3.52
2019-02-15T01:58:53.929Z,3.56
2019-02-15T01:59:53.917Z,3.63
2019-02-15T02:00:53.905Z,3.59
2019-02-15T02:01:53.892Z,3.48
2019-02-15T02:02:53.880Z,3.54
2019-02-15T02:03:53.869Z,3.54
2019-02-15T02:04:53.856Z,3.62
2019-02-15T02:05:53.849Z,3.56
2019-02-15T02:06:53.835Z,3.49
2019-02-15T02:07:53.823Z,3.59
2019-02-15T02:08:53.809Z,3.49
2019-02-15T02:09:53.799Z,3.51
2019-02-15T02:10:53.784Z,3.51
2019-02-15T02:11:53.775Z,3.48
2019-02-15T02:12:53.762Z,3.55
2019-02-15T02:13:53.749Z,3.56
2019-02-15T02:14:53.741Z,3.52
2019-02-15T02:15:53.728Z,3.52
2019-02-15T02:16:53.723Z,3.42
2019-02-15T02:17:53.704Z,3.54
2019-02-15T02:18:53.695Z,3.42
2019-02-15T02:19:53.680Z,3.45
2019-02-15T02:20:53.682Z,3.46
2019-02-15T02:21:53.654Z,3.37
2019-02-15T02:22:53.642Z,3.37
2019-02-15T02:23:53.630Z,3.48
2019-02-15T02:24:53.618Z,3.41
2019-02-15T02:25:53.606Z,3.42
2019-02-15T02:26:53.597Z,3.41
2019-02-15T02:27:53.578Z,3.33
2019-02-15T02:28:53.581Z,3.37
2019-02-15T02:29:53.554Z,3.36
2019-02-15T02:30:53.550Z,3.42
2019-02-15T02:31:53.532Z,3.30
2019-02-15T02:32:53.518Z,3.41
2019-02-15T02:33:53.509Z,3.22
2019-02-15T02:34:53.491Z,3.26
2019-02-15T02:35:53.480Z,3.33
2019-02-15T02:36:53.470Z,3.32
2019-02-15T02:37:53.464Z,3.22
2019-02-15T02:38:53.452Z,3.30
2019-02-15T02:39:53.440Z,3.22
2019-02-15T02:40:53.426Z,3.29
2019-02-15T02:41:53.411Z,3.18
2019-02-15T02:42:53.401Z,3.23
2019-02-15T02:43:59.467Z,3.23
2019-02-15T02:44:53.379Z,3.17
2019-02-15T02:45:53.375Z,3.25
2019-02-15T02:46:53.353Z,3.25
2019-02-15T02:47:53.343Z,3.15
2019-02-15T02:48:53.328Z,3.17
2019-02-15T02:49:53.318Z,3.12
2019-02-15T02:50:53.307Z,3.15
2019-02-15T02:51:53.294Z,3.15
2019-02-15T02:52:53.287Z,3.17
2019-02-15T02:53:53.269Z,3.22
2019-02-15T02:54:53.256Z,3.18
2019-02-15T02:55:53.244Z,3.17
2019-02-15T02:56:53.278Z,3.11
2019-02-15T02:57:53.227Z,3.17
2019-02-15T02:58:53.211Z,3.15
2019-02-15T02:59:53.198Z,3.23
2019-02-15T03:00:53.180Z,3.15
2019-02-15T03:01:53.173Z,3.20
2019-02-15T03:02:53.162Z,3.17
2019-02-15T03:03:53.156Z,3.15
2019-02-15T03:04:53.145Z,3.25
2019-02-15T03:05:53.129Z,3.18
2019-02-15T03:06:53.112Z,3.12
2019-02-15T03:07:53.102Z,3.14
2019-02-15T03:08:53.086Z,3.20
2019-02-15T03:09:53.085Z,3.12
2019-02-15T03:10:53.073Z,3.22
2019-02-15T03:11:53.076Z,3.14
2019-02-15T03:12:53.042Z,3.11
2019-02-15T03:13:53.026Z,3.17
2019-02-15T03:14:53.014Z,3.11
2019-02-15T03:15:53.015Z,3.07
2019-02-15T03:16:52.997Z,3.02
2019-02-15T03:17:52.985Z,3.00
2019-02-15T03:18:52.965Z,3.05
2019-02-15T03:19:52.954Z,3.09
2019-02-15T03:20:52.942Z,3.00
2019-02-15T03:21:52.932Z,3.08
2019-02-15T03:22:52.943Z,2.96
2019-02-15T03:23:52.911Z,3.02
2019-02-15T03:24:52.896Z,3.04
2019-02-15T03:25:52.887Z,3.04
2019-02-15T03:26:52.871Z,3.04
2019-02-15T03:27:52.864Z,3.04
2019-02-15T03:28:52.845Z,3.07
2019-02-15T03:29:52.836Z,2.99
2019-02-15T03:30:52.895Z,3.04
2019-02-15T03:31:52.848Z,3.00
2019-02-15T03:32:52.800Z,3.00
2019-02-15T03:33:52.788Z,3.04
2019-02-15T03:34:52.780Z,3.05
2019-02-15T03:35:52.762Z,3.08
2019-02-15T03:36:52.751Z,3.12
2019-02-15T03:37:52.740Z,3.11
2019-02-15T03:38:52.728Z,3.12
2019-02-15T03:39:52.719Z,3.12
2019-02-15T03:40:52.711Z,3.15
2019-02-15T03:41:52.690Z,3.22
2019-02-15T03:42:52.680Z,3.18
2019-02-15T03:43:52.666Z,3.22
2019-02-15T03:44:52.681Z,3.15
2019-02-15T03:45:52.649Z,3.15
2019-02-15T03:46:52.626Z,3.14
2019-02-15T03:47:52.620Z,3.22
2019-02-15T03:48:52.609Z,3.25
2019-02-15T03:49:52.590Z,3.25
2019-02-15T03:50:52.578Z,3.23
2019-02-15T03:51:52.563Z,3.14
2019-02-15T03:52:52.558Z,3.15
2019-02-15T03:53:52.545Z,3.20
2019-02-15T03:54:52.532Z,3.14
2019-02-15T03:55:52.523Z,3.18
2019-02-15T03:56:52.512Z,3.18
2019-02-15T03:57:52.494Z,3.18
2019-02-15T03:58:52.485Z,3.12
2019-02-15T03:59:52.462Z,3.23
2019-02-15T04:00:52.460Z,3.09
2019-02-15T04:01:52.449Z,3.05
2019-02-15T04:02:52.437Z,3.09
2019-02-15T04:03:52.423Z,2.91
2019-02-15T04:04:52.425Z,2.96
2019-02-15T04:05:52.405Z,2.93
2019-02-15T04:06:52.391Z,2.91
2019-02-15T04:07:52.381Z,2.90
2019-02-15T04:08:52.364Z,2.93
2019-02-15T04:09:52.348Z,2.79
2019-02-15T04:10:52.341Z,2.84
2019-02-15T04:11:52.324Z,2.72
2019-02-15T04:12:52.311Z,2.72
2019-02-15T04:13:52.302Z,2.84
2019-02-15T04:14:52.299Z,2.72
2019-02-15T04:15:52.280Z,2.71
2019-02-15T04:16:52.266Z,2.78
2019-02-15T04:17:52.251Z,2.73
2019-02-15T04:18:52.241Z,2.79
2019-02-15T04:19:52.242Z,2.75
2019-02-15T04:20:52.217Z,2.81
2019-02-15T04:21:52.208Z,2.73
2019-02-15T04:22:52.192Z,2.69
2019-02-15T04:23:52.177Z,2.65
2019-02-15T04:24:52.167Z,2.71
2019-02-15T04:25:52.165Z,2.72
2019-02-15T04:26:52.145Z,2.75
2019-02-15T04:27:52.142Z,2.66
2019-02-15T04:28:52.124Z,2.72
2019-02-15T04:29:52.109Z,2.60
2019-02-15T04:30:52.094Z,2.58
2019-02-15T04:31:52.080Z,2.63
2019-02-15T04:32:52.071Z,2.63
2019-02-15T04:33:52.060Z,2.68
2019-02-15T04:34:52.050Z,2.63
2019-02-15T04:35:52.029Z,2.61
2019-02-15T04:36:52.037Z,2.72
2019-02-15T04:37:52.023Z,2.65
2019-02-15T04:38:51.999Z,2.55
2019-02-15T04:39:51.995Z,2.66
2019-02-15T04:40:51.963Z,2.63
2019-02-15T04:41:51.960Z,2.63
2019-02-15T04:42:51.947Z,2.68
2019-02-15T04:43:51.934Z,2.65
2019-02-15T04:44:51.927Z,2.68
2019-02-15T04:45:51.912Z,2.71
2019-02-15T04:46:51.900Z,2.63
2019-02-15T04:47:51.888Z,2.57
2019-02-15T04:48:51.874Z,2.57
2019-02-15T04:49:51.864Z,2.50
2019-02-15T04:50:51.846Z,2.54
2019-02-15T04:51:51.841Z,2.55
2019-02-15T04:52:51.824Z,2.57
2019-02-15T04:53:51.810Z,2.58
2019-02-15T04:54:51.797Z,2.61
2019-02-15T04:55:51.787Z,2.54
2019-02-15T04:56:51.774Z,2.57
2019-02-15T04:57:51.785Z,2.54
2019-02-15T04:58:51.752Z,2.54
2019-02-15T04:59:51.744Z,2.51
2019-02-15T05:00:51.726Z,2.50
2019-02-15T05:01:51.716Z,2.61
2019-02-15T05:02:51.698Z,2.61
2019-02-15T05:03:51.687Z,2.61
2019-02-15T05:06:24.779Z,2.53
2019-02-15T05:07:24.749Z,2.50
2019-02-15T05:09:19.226Z,2.50
2019-02-15T05:10:19.199Z,2.53
2019-02-15T05:12:13.564Z,2.55
2019-02-15T05:13:13.534Z,2.55
2019-02-15T05:15:07.929Z,2.58
2019-02-15T05:16:07.863Z,2.48
2019-02-15T05:17:07.858Z,2.45
2019-02-15T05:18:07.844Z,2.48
2019-02-15T05:19:07.834Z,2.54
2019-02-15T05:20:07.822Z,2.50
2019-02-15T05:21:07.811Z,2.51
2019-02-15T05:22:07.798Z,2.53
2019-02-15T05:23:07.782Z,2.42
2019-02-15T05:24:07.771Z,2.45
2019-02-15T05:25:07.758Z,2.50
2019-02-15T05:26:07.735Z,2.37
2019-02-15T05:27:07.738Z,2.45
2019-02-15T05:28:08.951Z,2.42
2019-02-15T05:29:07.710Z,2.47
2019-02-15T05:30:07.699Z,2.43
2019-02-15T05:31:07.688Z,2.39
2019-02-15T05:32:07.670Z,2.43
2019-02-15T05:33:07.662Z,2.43
2019-02-15T05:34:07.649Z,2.42
2019-02-15T05:35:07.638Z,2.40
2019-02-15T05:36:07.804Z,2.40
2019-02-15T05:37:07.610Z,2.36
2019-02-15T05:38:07.596Z,2.47
2019-02-15T05:39:07.586Z,2.51
2019-02-15T05:40:07.574Z,2.40
2019-02-15T05:41:07.560Z,2.40
2019-02-15T05:42:07.548Z,2.50
2019-02-15T05:43:07.537Z,2.54
2019-02-15T05:44:07.524Z,2.45
2019-02-15T05:45:07.514Z,2.55
2019-02-15T05:46:07.494Z,2.48
2019-02-15T05:47:07.484Z,2.53
2019-02-15T05:48:07.475Z,2.51
2019-02-15T05:49:07.459Z,2.43
2019-02-15T05:50:07.447Z,2.51
2019-02-15T05:51:07.442Z,2.55
2019-02-15T05:52:07.430Z,2.42
2019-02-15T05:53:07.414Z,2.57
2019-02-15T05:54:07.976Z,2.57
2019-02-15T05:55:07.385Z,2.50
2019-02-15T05:56:07.377Z,2.53
2019-02-15T05:57:09.527Z,2.47
2019-02-15T05:58:07.343Z,2.54
2019-02-15T05:59:07.335Z,2.53
2019-02-15T06:00:07.325Z,2.55
2019-02-15T06:01:07.302Z,2.51
2019-02-15T06:02:07.298Z,2.48
2019-02-15T06:03:07.293Z,2.53
2019-02-15T06:04:07.267Z,2.58
2019-02-15T06:05:07.261Z,2.68
2019-02-15T06:06:07.251Z,2.75
2019-02-15T06:07:07.234Z,2.72
2019-02-15T06:08:07.223Z,2.71
2019-02-15T06:09:07.211Z,2.65
2019-02-15T06:10:07.198Z,2.72
2019-02-15T06:11:08.280Z,2.65
2019-02-15T06:12:07.171Z,2.63
2019-02-15T06:13:07.163Z,2.68
2019-02-15T06:14:07.148Z,2.65
2019-02-15T06:15:14.808Z,2.69
2019-02-15T06:16:07.123Z,2.71
2019-02-15T06:17:07.110Z,2.65
2019-02-15T06:18:07.101Z,2.63
2019-02-15T06:19:07.111Z,2.68
2019-02-15T06:20:07.076Z,2.63
2019-02-15T06:21:07.084Z,2.69
2019-02-15T06:22:07.049Z,2.60
2019-02-15T06:23:07.039Z,2.69
2019-02-15T06:24:07.021Z,2.58
2019-02-15T06:25:07.009Z,2.66
2019-02-15T06:26:07.003Z,2.57
2019-02-15T06:27:06.986Z,2.71
2019-02-15T06:28:06.974Z,2.65
2019-02-15T06:29:06.966Z,2.58
2019-02-15T06:30:06.951Z,2.66
2019-02-15T06:31:06.933Z,2.58
2019-02-15T06:32:06.920Z,2.58
2019-02-15T06:33:06.916Z,2.54
2019-02-15T06:34:06.898Z,2.58
2019-02-15T06:35:06.934Z,2.54
2019-02-15T06:36:06.871Z,2.51
2019-02-15T06:37:06.861Z,2.54
2019-02-15T06:38:06.849Z,2.51
2019-02-15T06:39:06.852Z,2.54
2019-02-15T06:40:06.831Z,2.53
2019-02-15T06:41:06.815Z,2.55
2019-02-15T06:42:06.810Z,2.65
2019-02-15T06:43:06.788Z,2.55
2019-02-15T06:44:06.781Z,2.65
2019-02-15T06:45:06.763Z,2.66
2019-02-15T06:46:06.759Z,2.63
2019-02-15T06:47:06.735Z,2.66
2019-02-15T06:48:06.728Z,2.69
2019-02-15T06:49:06.710Z,2.63
2019-02-15T06:50:06.702Z,2.63
2019-02-15T06:51:06.693Z,2.66
2019-02-15T06:52:06.680Z,2.71
2019-02-15T06:53:06.665Z,2.66
2019-02-15T06:54:06.654Z,2.66
2019-02-15T06:55:06.637Z,2.66
2019-02-15T06:56:06.625Z,2.61
2019-02-15T06:57:06.612Z,2.57
2019-02-15T06:58:06.598Z,2.66
2019-02-15T06:59:06.591Z,2.58
2019-02-15T07:00:06.578Z,2.69
2019-02-15T07:01:06.568Z,2.61
2019-02-15T07:02:06.544Z,2.66
2019-02-15T07:03:06.537Z,2.65
2019-02-15T07:04:06.523Z,2.71
2019-02-15T07:05:06.515Z,2.69
2019-02-15T07:06:06.557Z,2.66
2019-02-15T07:07:06.486Z,2.63
2019-02-15T07:08:06.474Z,2.65
2019-02-15T07:09:06.458Z,2.71
2019-02-15T07:10:06.449Z,2.68
2019-02-15T07:11:06.443Z,2.71
2019-02-15T07:12:06.429Z,2.68
2019-02-15T07:13:06.466Z,2.65
2019-02-15T07:14:06.405Z,2.69
2019-02-15T07:15:06.385Z,2.69
2019-02-15T07:16:06.372Z,2.69
2019-02-15T07:17:06.363Z,2.76
2019-02-15T07:18:06.356Z,2.78
2019-02-15T07:19:06.342Z,2.75
2019-02-15T07:20:06.331Z,2.78
2019-02-15T07:21:06.314Z,2.87
2019-02-15T07:22:06.303Z,2.87
2019-02-15T07:23:06.294Z,2.91
2019-02-15T07:24:06.279Z,2.87
2019-02-15T07:25:06.265Z,3.04
2019-02-15T07:26:06.253Z,3.00
2019-02-15T07:27:06.239Z,3.04
2019-02-15T07:28:06.228Z,3.15
2019-02-15T07:29:06.214Z,3.15
2019-02-15T07:30:06.207Z,3.25
2019-02-15T07:31:06.219Z,3.42
2019-02-15T07:32:06.186Z,3.44
2019-02-15T07:33:06.168Z,3.48
2019-02-15T07:34:06.159Z,3.51
2019-02-15T07:35:06.142Z,3.48
2019-02-15T07:36:06.131Z,3.51
2019-02-15T07:37:06.142Z,3.73
2019-02-15T07:38:06.112Z,3.80
2019-02-15T07:39:06.094Z,3.81
2019-02-15T07:40:06.083Z,3.73
2019-02-15T07:41:06.069Z,3.82
2019-02-15T07:42:06.059Z,3.96
2019-02-15T07:43:06.061Z,4.08
2019-02-15T07:44:06.038Z,4.09
2019-02-15T07:45:06.030Z,4.21
2019-02-15T07:46:06.003Z,4.18
2019-02-15T07:47:05.998Z,4.42
2019-02-15T07:48:05.983Z,4.45
2019-02-15T07:49:05.977Z,4.54
2019-02-15T07:50:05.963Z,4.64
2019-02-15T07:51:09.723Z,4.66
2019-02-15T07:52:05.943Z,4.83
2019-02-15T07:53:06.177Z,4.85
2019-02-15T07:54:05.921Z,4.91
2019-02-15T07:55:05.906Z,4.98
2019-02-15T07:56:05.897Z,5.03
2019-02-15T07:57:05.881Z,5.09
2019-02-15T07:58:05.871Z,5.15
2019-02-15T07:59:05.861Z,5.19
2019-02-15T08:00:05.845Z,5.30
2019-02-15T08:01:05.833Z,5.30
2019-02-15T08:02:05.823Z,5.43
2019-02-15T08:03:05.812Z,5.48
2019-02-15T08:04:06.917Z,5.48
2019-02-15T08:05:05.795Z,5.44
2019-02-15T08:06:05.779Z,5.47
2019-02-15T08:07:05.768Z,5.59
2019-02-15T08:08:05.756Z,5.70
2019-02-15T08:09:05.748Z,5.70
2019-02-15T08:10:05.732Z,5.76
2019-02-15T08:11:05.721Z,5.77
2019-02-15T08:12:05.718Z,5.76
2019-02-15T08:13:05.697Z,5.82
2019-02-15T08:14:14.350Z,5.93
2019-02-15T08:15:05.679Z,5.97
2019-02-15T08:16:05.668Z,5.97
2019-02-15T08:17:05.657Z,5.95
2019-02-15T08:18:05.644Z,5.98
2019-02-15T08:19:05.632Z,6.06
2019-02-15T08:20:05.623Z,6.05
2019-02-15T08:21:05.608Z,6.03
2019-02-15T08:22:05.599Z,6.16
2019-02-15T08:23:05.593Z,6.12
2019-02-15T08:24:05.581Z,6.12
2019-02-15T08:25:05.566Z,6.15
2019-02-15T08:26:05.557Z,6.12
2019-02-15T08:27:05.548Z,6.18
2019-02-15T08:28:05.539Z,6.24
2019-02-15T08:29:05.530Z,6.25
2019-02-15T08:30:05.514Z,6.27
2019-02-15T08:31:05.503Z,6.28
2019-02-15T08:32:05.491Z,6.31
2019-02-15T08:33:05.478Z,6.30
2019-02-15T08:34:05.473Z,6.38
2019-02-15T08:35:05.461Z,6.37
2019-02-15T08:36:05.452Z,6.40
2019-02-15T08:37:05.445Z,6.42
2019-02-15T08:38:05.429Z,6.40
2019-02-15T08:39:05.423Z,6.42
2019-02-15T08:40:05.413Z,6.50
2019-02-15T08:41:05.403Z,6.49
2019-02-15T08:42:05.387Z,6.43
2019-02-15T08:43:05.376Z,6.53
2019-02-15T08:44:05.363Z,6.53
2019-02-15T08:45:05.359Z,6.52
2019-02-15T08:46:05.347Z,6.65
2019-02-15T08:47:05.335Z,6.67
2019-02-15T08:48:05.385Z,6.71
2019-02-15T08:49:05.332Z,6.79
2019-02-15T08:50:05.304Z,6.71
2019-02-15T08:51:05.290Z,6.83
2019-02-15T08:52:05.279Z,6.96
2019-02-15T08:53:05.304Z,6.93
2019-02-15T08:54:05.258Z,7.00
2019-02-15T08:55:05.252Z,7.06
2019-02-15T08:56:05.242Z,7.03
2019-02-15T08:57:05.234Z,7.10
2019-02-15T08:58:05.219Z,7.07
2019-02-15T08:59:05.209Z,7.24
2019-02-15T09:00:05.201Z,7.22
2019-02-15T09:01:05.182Z,7.22
2019-02-15T09:02:05.181Z,7.29
2019-02-15T09:03:05.172Z,7.29
2019-02-15T09:04:05.155Z,7.40
2019-02-15T09:05:05.147Z,7.49
2019-02-15T09:06:05.139Z,7.50
2019-02-15T09:07:05.126Z,7.58
2019-02-15T09:08:05.116Z,7.62
2019-02-15T09:09:05.108Z,7.66
2019-02-15T09:10:05.102Z,7.69
2019-02-15T09:11:05.090Z,7.69
2019-02-15T09:12:05.075Z,7.64
2019-02-15T09:13:05.067Z,7.74
2019-02-15T09:14:05.060Z,7.73
2019-02-15T09:15:05.039Z,7.71
2019-02-15T09:16:10.367Z,7.86
2019-02-15T09:17:05.024Z,7.81
2019-02-15T09:18:05.013Z,7.80
2019-02-15T09:19:05.013Z,7.86
2019-02-15T09:20:05.002Z,7.94
2019-02-15T09:21:04.986Z,8.04
2019-02-15T09:22:04.981Z,8.06
2019-02-15T09:23:04.966Z,8.05
2019-02-15T09:24:04.953Z,8.12
2019-02-15T09:25:04.947Z,8.10
2019-02-15T09:26:04.945Z,8.06
2019-02-15T09:27:04.930Z,8.16
2019-02-15T09:28:04.922Z,8.20
2019-02-15T09:29:04.908Z,8.24
2019-02-15T09:30:04.900Z,8.29
2019-02-15T09:31:04.891Z,8.38
2019-02-15T09:32:04.883Z,8.34
2019-02-15T09:33:04.870Z,8.37
2019-02-15T09:34:04.863Z,8.46
2019-02-15T09:35:04.853Z,8.55
2019-02-15T09:36:04.844Z,8.52
2019-02-15T09:37:04.832Z,8.70
2019-02-15T09:38:04.828Z,8.63
2019-02-15T09:39:04.817Z,8.74
2019-02-15T09:40:04.808Z,8.75
2019-02-15T09:41:04.799Z,8.85
2019-02-15T09:42:04.785Z,8.93
2019-02-15T09:43:04.780Z,8.89
2019-02-15T09:44:04.772Z,8.95
2019-02-15T09:45:04.762Z,9.01
2019-02-15T09:46:04.750Z,9.06
2019-02-15T09:47:04.740Z,9.08
2019-02-15T09:48:04.733Z,9.26
2019-02-15T09:49:04.719Z,9.23
2019-02-15T09:50:04.713Z,9.27
2019-02-15T09:51:04.712Z,9.33
2019-02-15T09:52:04.701Z,9.37
2019-02-15T09:53:04.687Z,9.37
2019-02-15T09:54:04.679Z,9.37
2019-02-15T09:55:04.668Z,9.34
2019-02-15T09:56:04.658Z,9.41
2019-02-15T09:57:04.648Z,9.51
2019-02-15T09:58:04.640Z,9.57
2019-02-15T09:59:04.636Z,9.62
2019-02-15T10:00:04.624Z,9.62
2019-02-15T10:01:04.617Z,9.75
2019-02-15T10:02:04.607Z,9.67
2019-02-15T10:03:04.597Z,9.81
2019-02-15T10:04:04.590Z,9.80
2019-02-15T10:05:04.582Z,9.90
2019-02-15T10:06:04.573Z,9.81
2019-02-15T10:07:04.561Z,9.87
2019-02-15T10:08:04.550Z,9.93
2019-02-15T10:09:04.535Z,10.05
2019-02-15T10:10:04.529Z,10.01
2019-02-15T10:11:04.529Z,10.08
2019-02-15T10:12:04.520Z,10.14
2019-02-15T10:13:04.514Z,10.09
2019-02-15T10:14:04.500Z,10.23
2019-02-15T10:15:04.497Z,10.16
2019-02-15T10:16:04.482Z,10.23
2019-02-15T10:17:04.489Z,10.21
2019-02-15T10:18:04.471Z,10.34
2019-02-15T10:19:04.458Z,10.42
2019-02-15T10:20:04.447Z,10.31
2019-02-15T10:21:04.441Z,10.42
2019-02-15T10:22:04.437Z,10.49
2019-02-15T10:23:04.425Z,10.52
2019-02-15T10:24:04.419Z,10.60
2019-02-15T10:25:04.408Z,10.61
2019-02-15T10:26:04.400Z,10.60
2019-02-15T10:27:04.391Z,10.70
2019-02-15T10:28:04.380Z,10.70
2019-02-15T10:29:04.372Z,10.70
2019-02-15T10:30:04.365Z,10.72
2019-02-15T10:31:04.357Z,10.70
2019-02-15T10:32:04.343Z,10.68
2019-02-15T10:33:04.340Z,10.65
2019-02-15T10:34:04.334Z,10.79
2019-02-15T10:35:04.331Z,10.79
2019-02-15T10:36:04.320Z,10.79
2019-02-15T10:37:04.316Z,10.73
2019-02-15T10:38:04.299Z,10.83
2019-02-15T10:39:04.294Z,10.86
2019-02-15T10:40:04.278Z,10.82
2019-02-15T10:41:04.275Z,10.87
2019-02-15T10:42:04.264Z,10.97
2019-02-15T10:43:04.262Z,11.01
2019-02-15T10:44:04.258Z,11.03
2019-02-15T10:45:04.247Z,11.13
2019-02-15T10:46:04.245Z,11.05
2019-02-15T10:47:04.228Z,11.20
2019-02-15T10:48:04.219Z,11.13
2019-02-15T10:49:04.214Z,11.20
2019-02-15T10:50:05.158Z,11.22
2019-02-15T10:51:04.196Z,11.30
2019-02-15T10:52:04.188Z,11.34
2019-02-15T10:53:04.179Z,11.34
2019-02-15T10:54:04.171Z,11.27
2019-02-15T10:55:04.170Z,11.27
2019-02-15T10:56:04.159Z,11.28
2019-02-15T10:57:04.162Z,11.28
2019-02-15T10:58:04.144Z,11.43
2019-02-15T10:59:04.135Z,11.41
2019-02-15T11:00:04.118Z,11.45
2019-02-15T11:01:04.118Z,11.52
2019-02-15T11:02:04.134Z,11.54
2019-02-15T11:03:04.108Z,11.56
2019-02-15T11:04:04.097Z,11.52
2019-02-15T11:05:04.088Z,11.45
2019-02-15T11:06:04.081Z,11.52
2019-02-15T11:07:04.075Z,11.67
2019-02-15T11:08:04.066Z,11.61
2019-02-15T11:09:04.060Z,11.61
2019-02-15T11:10:04.051Z,11.67
2019-02-15T11:11:04.042Z,11.71
2019-02-15T11:12:04.039Z,11.74
2019-02-15T11:13:04.027Z,11.71
2019-02-15T11:14:04.019Z,11.77
2019-02-15T11:15:04.018Z,11.85
2019-02-15T11:16:04.008Z,11.80
2019-02-15T11:17:04.000Z,11.85
2019-02-15T11:18:03.994Z,11.82
2019-02-15T11:19:03.984Z,12.00
2019-02-15T11:20:03.978Z,12.10
2019-02-15T11:21:03.966Z,12.05
2019-02-15T11:22:03.961Z,12.05
2019-02-15T11:23:03.958Z,12.18
2019-02-15T11:24:03.951Z,12.05
2019-02-15T11:25:03.936Z,12.17
2019-02-15T11:26:04.562Z,12.22
2019-02-15T11:27:03.931Z,12.18
2019-02-15T11:28:03.917Z,12.11
2019-02-15T11:29:03.909Z,12.18
2019-02-15T11:30:03.906Z,12.17
2019-02-15T11:31:03.894Z,12.14
2019-02-15T11:32:03.886Z,12.17
2019-02-15T11:33:03.878Z,12.15
2019-02-15T11:34:03.872Z,12.26
2019-02-15T11:35:03.869Z,12.17
2019-02-15T11:36:03.858Z,12.18
2019-02-15T11:37:03.843Z,12.18
2019-02-15T11:38:03.844Z,12.26
2019-02-15T11:39:03.840Z,12.26
2019-02-15T11:40:03.833Z,12.26
2019-02-15T11:41:10.880Z,12.28
2019-02-15T11:42:03.818Z,12.38
2019-02-15T11:43:03.809Z,12.43
2019-02-15T11:44:03.803Z,12.40
2019-02-15T11:45:03.795Z,12.47
2019-02-15T11:46:03.793Z,12.46
2019-02-15T11:47:03.785Z,12.47
2019-02-15T11:48:03.778Z,12.46
2019-02-15T11:49:03.770Z,12.48
2019-02-15T11:50:03.763Z,12.47
2019-02-15T11:51:03.754Z,12.46
2019-02-15T11:52:03.748Z,12.54
2019-02-15T11:53:03.798Z,12.44
2019-02-15T11:54:03.738Z,12.54
2019-02-15T11:55:03.724Z,12.62
2019-02-15T11:56:03.716Z,12.47
2019-02-15T11:57:03.708Z,12.58
2019-02-15T11:58:03.703Z,12.66
2019-02-15T11:59:03.700Z,12.62
2019-02-15T12:00:03.695Z,12.68
2019-02-15T12:01:03.687Z,12.76
2019-02-15T12:02:06.180Z,12.71
2019-02-15T12:03:03.670Z,12.79
2019-02-15T12:04:03.665Z,12.79
2019-02-15T12:05:03.653Z,12.77
2019-02-15T12:06:03.916Z,12.83
2019-02-15T12:07:03.646Z,12.81
2019-02-15T12:08:03.639Z,12.83
2019-02-15T12:09:03.629Z,12.76
2019-02-15T12:10:03.615Z,12.80
2019-02-15T12:11:03.616Z,12.84
2019-02-15T12:12:10.470Z,12.95
2019-02-15T12:13:03.608Z,12.93
2019-02-15T12:14:03.600Z,12.98
2019-02-15T12:15:03.588Z,12.98
2019-02-15T12:16:03.582Z,12.98
2019-02-15T12:17:05.689Z,13.05
2019-02-15T12:18:03.565Z,13.11
2019-02-15T12:19:03.561Z,13.09
2019-02-15T12:20:03.566Z,13.05
2019-02-15T12:21:03.546Z,13.06
2019-02-15T12:22:03.544Z,13.11
2019-02-15T12:23:03.534Z,13.08
2019-02-15T12:24:03.529Z,13.06
2019-02-15T12:25:03.529Z,13.13
2019-02-15T12:26:03.520Z,13.06
2019-02-15T12:27:03.509Z,13.11
2019-02-15T12:28:03.507Z,13.17
2019-02-15T12:29:03.504Z,13.19
2019-02-15T12:30:03.493Z,13.27
2019-02-15T12:31:03.491Z,13.26
2019-02-15T12:32:03.477Z,13.20
2019-02-15T12:33:03.470Z,13.21
2019-02-15T12:34:03.464Z,13.38
2019-02-15T12:35:03.459Z,13.24
2019-02-15T12:36:03.447Z,13.29
2019-02-15T12:37:03.442Z,13.36
2019-02-15T12:38:03.435Z,13.38
2019-02-15T12:39:03.432Z,13.32
2019-02-15T12:40:03.431Z,13.38
2019-02-15T12:41:03.415Z,13.46
2019-02-15T12:42:03.409Z,13.45
2019-02-15T12:43:03.413Z,13.53
2019-02-15T12:44:03.399Z,13.46
2019-02-15T12:45:03.398Z,13.46
2019-02-15T12:46:03.392Z,13.42
2019-02-15T12:47:03.379Z,13.58
2019-02-15T12:48:03.376Z,13.42
2019-02-15T12:49:03.358Z,13.55
2019-02-15T12:50:03.375Z,13.57
2019-02-15T12:51:03.354Z,13.64
2019-02-15T12:52:03.354Z,13.63
2019-02-15T12:53:03.338Z,13.73
2019-02-15T12:54:03.339Z,13.68
2019-02-15T12:55:04.071Z,13.72
2019-02-15T12:56:03.323Z,13.65
2019-02-15T12:57:03.319Z,13.67
2019-02-15T12:58:03.313Z,13.72
2019-02-15T12:59:03.299Z,13.80
2019-02-15T13:00:03.290Z,13.75
2019-02-15T13:01:03.288Z,13.71
2019-02-15T13:02:03.286Z,13.67
2019-02-15T13:03:03.282Z,13.82
2019-02-15T13:04:03.276Z,13.80
2019-02-15T13:05:03.269Z,13.76
2019-02-15T13:06:03.266Z,13.86
2019-02-15T13:07:03.252Z,13.79
2019-02-15T13:08:03.249Z,13.88
2019-02-15T13:09:03.240Z,13.80
2019-02-15T13:10:03.229Z,13.79
2019-02-15T13:11:03.233Z,13.83
2019-02-15T13:12:03.229Z,13.80
2019-02-15T13:13:03.220Z,13.86
2019-02-15T13:14:04.160Z,13.83
2019-02-15T13:15:05.015Z,13.86
2019-02-15T13:16:03.204Z,13.93
2019-02-15T13:17:03.190Z,13.91